KMYV/MYV METAR and TAF weather

Enter ICAO airport designator
Station Type Date Time Source
KMYV METAR 2022/01/29 01:53 UTC NOAA

KMYV 290153Z AUTO 00000KT 10SM CLR 11/06 A3025 RMK AO2 SLP247 T01060056 $


Station Type Date Time Source
KMYV Decoded METAR 2022/01/29 01:53 UTC NOAA

MARYSVILLE YUBA COUNTY, CA, United States (KMYV) 39-06N 121-34W 21M
Jan 28, 2022 - 08:53 PM EST / 2022.01.29 0153 UTC
Wind: Calm:0
Visibility: 10 mile(s):0
Sky conditions: clear
Temperature: 51.1 F (10.6 C)
Dew Point: 42.1 F (5.6 C)
Relative Humidity: 71%
Pressure (altimeter): 30.25 in. Hg (1024 hPa)
ob: KMYV 290153Z AUTO 00000KT 10SM CLR 11/06 A3025 RMK AO2 SLP247 T01060056
cycle: 2

Station Type Date Time Source
KMYV TAF UTC NOAA

Error!

Example: see airport list